History for KNJHOBOK14

Lower Manhattan, Hoboken, NJ — Current Conditions
Daily Summary for June 28, 2017
  Current: High: Low: Average:
Temperature: 73.2°F 77.2°F 72.7°F 74.9°F
Dew Point: 52.7°F 55.1°F 52.5°F 54.3°F
Humidity: 48% 49% 45% 46%
Wind Speed: - 0.0mph - 0.0mph
Wind Gust: - 0.0mph - -
Wind: North - - North
Pressure: 30.09in 30.09in 30.01in -
Precipitation: 0.00in      
Statistics for the rest of the month
    High: Low: Average:
Temperature:   84.0°F 70.2°F 75.5°F
Dew Point:   63.9°F 49.7°F 56.1°F
Humidity:   65.0% 42.0% 51.1%
Wind Speed:   0.0mph from the North - 0.0mph
Wind Gust:   0.0mph from the North - -
Wind:   - - North
Pressure:   30.09in 29.54in -
Precipitation:   0.00in    
KNJHOBOK14 Weather Graph
Tabular Data for June 28, 2017
Time Temp. Dew Point Pressure Wind Gust Humidity Rainfall
00:04 76.3°F 54.9°F 30.01in - 47% -
00:14 76.5°F 55.1°F 30.01in - 47% -
00:24 76.5°F 55.1°F 30.01in - 47% -
00:34 76.5°F 55.1°F 30.01in - 47% -
00:44 76.6°F 54.7°F 30.01in - 46% -
01:04 76.6°F 54.7°F 30.02in - 46% -
01:14 76.8°F 54.8°F 30.02in - 46% -
01:25 76.8°F 54.8°F 30.02in - 46% -
01:35 76.8°F 54.8°F 30.02in - 46% -
01:45 77.0°F 55.0°F 30.01in - 46% -
02:05 77.0°F 55.0°F 30.02in - 46% -
02:15 77.0°F 54.4°F 30.02in - 45% -
02:25 77.0°F 54.4°F 30.02in - 45% -
02:35 77.0°F 54.4°F 30.03in - 45% -
02:45 77.2°F 54.6°F 30.03in - 45% -
03:05 77.2°F 54.6°F 30.04in - 45% -
03:15 77.2°F 54.6°F 30.04in - 45% -
03:25 77.2°F 54.6°F 30.04in - 45% -
03:35 77.2°F 54.6°F 30.04in - 45% -
03:46 77.2°F 54.6°F 30.04in - 45% -
04:06 77.2°F 54.6°F 30.04in - 45% -
04:16 76.8°F 54.2°F 30.05in - 45% -
04:26 76.3°F 53.7°F 30.05in - 45% -
04:36 75.9°F 53.4°F 30.05in - 45% -
04:46 75.6°F 53.7°F 30.06in - 46% -
05:16 73.0°F 52.5°F 30.07in - 48% -
05:26 72.9°F 52.9°F 30.08in - 49% -
05:46 72.7°F 52.7°F 30.08in - 49% -
06:17 73.0°F 52.5°F 30.09in - 48% -
06:27 73.2°F 52.7°F 30.09in - 48% -
Comma Delimited File
Powered by Weather Underground, Inc.